Time;durP1;ratioP1;P1;durP2;ratioP2;P2;SDS_P1;SDS_P2;PMS_P1;PMS_P2;Temp;Humidity;BMP_temperature;BMP_pressure;BME280_temperature;BME280_humidity;BME280_pressure;Samples;Min_cycle;Max_cycle;Signal;HPM_P1;HPM_P2
2023/11/29 00:00:48;;;;;;;9.95;4.75;;;;;;;-0.61;100.00;98006.63;5080133;28;20024;-78
2023/11/29 00:03:14;;;;;;;8.02;4.40;;;;;;;-0.54;100.00;98024.47;5068576;28;20054;-78
2023/11/29 00:05:39;;;;;;;9.40;4.70;;;;;;;-0.43;100.00;98031.38;5088072;28;20099;-78
2023/11/29 00:08:05;;;;;;;8.82;4.50;;;;;;;-0.38;100.00;98026.44;5080891;28;20005;-78
2023/11/29 00:10:31;;;;;;;7.68;4.60;;;;;;;-0.40;100.00;98019.59;5049758;28;20262;-78
2023/11/29 00:12:57;;;;;;;6.70;3.95;;;;;;;-0.49;100.00;98008.91;5049969;28;20194;-78
2023/11/29 00:15:23;;;;;;;7.80;4.78;;;;;;;-0.37;100.00;98021.94;5060473;28;20036;-78
2023/11/29 00:17:49;;;;;;;9.57;5.40;;;;;;;-0.50;100.00;98006.41;5060302;28;20024;-76
2023/11/29 00:20:15;;;;;;;7.80;4.38;;;;;;;-0.54;100.00;98013.84;5056163;28;20047;-78
2023/11/29 00:22:40;;;;;;;10.20;5.00;;;;;;;-0.69;100.00;98000.25;5062631;28;20012;-76
2023/11/29 00:25:06;;;;;;;10.90;5.10;;;;;;;-0.52;100.00;98021.69;5062566;28;20037;-76
2023/11/29 00:27:32;;;;;;;10.48;5.35;;;;;;;-0.70;100.00;98011.06;5079292;28;20017;-78
2023/11/29 00:29:57;;;;;;;11.93;5.72;;;;;;;-0.82;100.00;97991.84;5059581;28;20044;-77
2023/11/29 00:32:23;;;;;;;10.77;5.22;;;;;;;-0.88;100.00;97992.44;5051799;28;20020;-77
2023/11/29 00:34:48;;;;;;;9.52;5.50;;;;;;;-0.93;100.00;98006.16;5050502;28;20028;-77
2023/11/29 00:37:13;;;;;;;10.75;5.38;;;;;;;-1.04;100.00;97997.59;5065826;28;20066;-78
2023/11/29 00:39:39;;;;;;;11.10;5.28;;;;;;;-1.12;100.00;97991.22;5074584;28;20249;-77
2023/11/29 00:42:05;;;;;;;10.93;5.82;;;;;;;-1.11;100.00;98000.00;5040841;28;20030;-77
2023/11/29 00:44:30;;;;;;;11.23;5.82;;;;;;;-1.13;100.00;98008.13;5066232;28;20091;-77
2023/11/29 00:46:55;;;;;;;10.55;5.47;;;;;;;-1.29;100.00;97985.88;5047999;28;20036;-77
2023/11/29 00:49:20;;;;;;;11.98;6.13;;;;;;;-1.24;100.00;97995.03;5061270;28;20024;-76
2023/11/29 00:51:46;;;;;;;9.02;5.40;;;;;;;-1.23;100.00;97996.75;5066177;28;20025;-77
2023/11/29 00:54:11;;;;;;;9.98;5.70;;;;;;;-1.47;100.00;97975.22;5048784;28;20032;-77
2023/11/29 00:56:37;;;;;;;11.93;5.80;;;;;;;-1.36;100.00;98001.56;5048201;28;20341;-77
2023/11/29 00:59:02;;;;;;;11.63;5.53;;;;;;;-1.55;100.00;97982.09;5064999;28;20044;-77
2023/11/29 01:01:28;;;;;;;12.18;6.10;;;;;;;-1.47;100.00;97999.91;5065923;28;20028;-77
2023/11/29 01:03:53;;;;;;;11.63;6.32;;;;;;;-1.51;100.00;97997.72;5048091;28;20226;-77
2023/11/29 01:06:18;;;;;;;10.98;5.40;;;;;;;-1.70;100.00;97983.56;5048868;28;20029;-77
2023/11/29 01:08:44;;;;;;;10.23;5.75;;;;;;;-1.49;100.00;98009.84;5053497;28;20086;-77
2023/11/29 01:11:09;;;;;;;10.73;5.55;;;;;;;-1.59;100.00;97990.50;5063434;28;20021;-77
2023/11/29 01:13:34;;;;;;;11.15;5.95;;;;;;;-1.79;100.00;97968.53;5048364;28;20048;-77
2023/11/29 01:16:00;;;;;;;11.75;6.10;;;;;;;-1.61;100.00;98009.19;5047847;28;20049;-77
2023/11/29 01:18:27;;;;;;;13.38;6.03;;;;;;;-1.84;100.00;97978.72;5059396;28;20032;-77
2023/11/29 01:20:53;;;;;;;12.70;6.00;;;;;;;-1.62;100.00;98007.53;5051088;28;20040;-77
2023/11/29 01:23:18;;;;;;;11.30;5.68;;;;;;;-1.73;100.00;97983.00;5067396;28;20441;-77
2023/11/29 01:25:43;;;;;;;10.93;5.35;;;;;;;-1.67;100.00;97991.22;5084131;28;20035;-77
2023/11/29 01:28:10;;;;;;;10.23;5.93;;;;;;;-1.70;100.00;97978.28;5045008;28;20028;-76
2023/11/29 01:30:36;;;;;;;11.88;5.47;;;;;;;-1.84;100.00;97963.66;5055344;28;20025;-77
2023/11/29 01:33:02;;;;;;;13.40;6.22;;;;;;;-1.68;100.00;98000.16;5049069;28;20024;-76
2023/11/29 01:35:27;;;;;;;12.10;5.95;;;;;;;-1.64;100.00;98001.53;5052033;28;20025;-77
2023/11/29 01:37:52;;;;;;;11.32;5.75;;;;;;;-1.66;100.00;97974.31;5068181;28;20029;-77
2023/11/29 01:40:18;;;;;;;11.40;6.45;;;;;;;-1.41;100.00;97998.50;5047179;28;20032;-77
2023/11/29 01:42:43;;;;;;;12.40;5.65;;;;;;;-1.32;100.00;98000.25;5044079;28;20032;-77
2023/11/29 01:45:09;;;;;;;9.18;5.63;;;;;;;-1.37;100.00;97991.91;5037948;28;20037;-77
2023/11/29 01:47:37;;;;;;;11.20;6.38;;;;;;;-1.22;100.00;98003.69;5065250;28;20039;-78
2023/11/29 01:50:04;;;;;;;11.80;6.10;;;;;;;-1.26;100.00;97986.41;5072750;28;20001;-77
2023/11/29 01:52:30;;;;;;;11.60;6.50;;;;;;;-1.51;100.00;97969.38;5071133;28;20088;-77
2023/11/29 01:54:57;;;;;;;11.57;6.03;;;;;;;-1.36;100.00;97989.13;5060148;28;20024;-77
2023/11/29 01:57:22;;;;;;;13.77;7.00;;;;;;;-1.35;100.00;98003.22;5075775;28;20017;-77
2023/11/29 01:59:48;;;;;;;11.38;6.28;;;;;;;-1.46;100.00;97976.91;5045453;28;20035;-77
2023/11/29 02:02:13;;;;;;;13.40;6.45;;;;;;;-1.36;100.00;98002.41;5062424;28;20043;-78
2023/11/29 02:04:39;;;;;;;11.68;6.00;;;;;;;-1.22;100.00;98005.53;5053453;28;20416;-78
2023/11/29 02:07:04;;;;;;;13.95;6.32;;;;;;;-1.44;100.00;97948.38;5068902;28;20024;-78
2023/11/29 02:09:30;;;;;;;11.55;5.93;;;;;;;-1.19;100.00;97991.97;5047040;28;20313;-78
2023/11/29 02:11:55;;;;;;;11.23;6.20;;;;;;;-1.46;100.00;97947.72;5046940;28;20021;-78
2023/11/29 02:14:21;;;;;;;12.30;6.20;;;;;;;-1.41;100.00;97948.09;5055325;28;20051;-78
2023/11/29 02:16:46;;;;;;;13.65;6.95;;;;;;;-1.44;100.00;97948.38;5046497;28;20024;-78
2023/11/29 02:19:12;;;;;;;12.38;6.05;;;;;;;-1.23;100.00;97966.69;5046461;28;20052;-78
2023/11/29 02:21:37;;;;;;;13.68;7.05;;;;;;;-1.32;100.00;97971.06;5064288;28;20021;-78
2023/11/29 02:24:16;;;;;;;15.13;7.10;;;;;;;-1.31;100.00;97967.47;5065622;28;20060;-78
2023/11/29 02:26:42;;;;;;;12.43;6.13;;;;;;;-1.30;100.00;97977.06;5040394;28;20021;-78
2023/11/29 02:29:07;;;;;;;14.18;6.32;;;;;;;-1.30;100.00;97963.81;5049537;28;20024;-78
2023/11/29 02:31:32;;;;;;;11.95;6.55;;;;;;;-1.45;100.00;97950.19;5054132;28;20025;-78
2023/11/29 02:33:58;;;;;;;11.85;6.47;;;;;;;-1.40;100.00;97952.41;5064366;28;20021;-78
2023/11/29 02:36:24;;;;;;;13.70;7.40;;;;;;;-1.50;100.00;97947.16;5064568;28;20028;-78
2023/11/29 02:38:49;;;;;;;16.70;8.02;;;;;;;-1.54;100.00;97945.81;5046599;28;20024;-78
2023/11/29 02:41:14;;;;;;;16.08;7.47;;;;;;;-1.47;100.00;97946.84;5064155;28;20020;-78
2023/11/29 02:43:39;;;;;;;15.18;6.93;;;;;;;-1.57;100.00;97938.97;5059635;28;20021;-78
2023/11/29 02:46:05;;;;;;;14.63;7.40;;;;;;;-1.51;100.00;97945.50;5051896;28;20028;-76
2023/11/29 02:48:30;;;;;;;16.00;7.70;;;;;;;-1.48;100.00;97949.69;5029411;28;20314;-77
2023/11/29 02:50:55;;;;;;;19.08;7.85;;;;;;;-1.39;100.00;97954.94;5050420;28;20021;-77
2023/11/29 02:53:21;;;;;;;14.65;7.25;;;;;;;-1.39;100.00;97959.38;5045221;28;20025;-77
2023/11/29 02:55:46;;;;;;;14.18;6.60;;;;;;;-1.47;100.00;97936.25;5060220;28;20037;-77
2023/11/29 02:58:11;;;;;;;14.68;7.47;;;;;;;-1.39;100.00;97960.25;5058771;28;20056;-77
2023/11/29 03:00:37;;;;;;;16.67;7.90;;;;;;;-1.43;100.00;97953.56;5046353;28;20222;-77
2023/11/29 03:03:02;;;;;;;16.52;8.10;;;;;;;-1.45;100.00;97952.84;5055418;28;20028;-78
2023/11/29 03:05:27;;;;;;;14.45;7.30;;;;;;;-1.45;100.00;97957.34;5048924;28;20071;-78
2023/11/29 03:07:53;;;;;;;14.48;7.03;;;;;;;-1.50;100.00;97947.16;5068177;28;20314;-77
2023/11/29 03:10:18;;;;;;;13.82;6.82;;;;;;;-1.38;100.00;97947.81;5068079;28;20035;-77
2023/11/29 03:12:43;;;;;;;15.57;7.65;;;;;;;-1.33;100.00;97959.63;5067644;28;20027;-79
2023/11/29 03:15:11;;;;;;;15.65;7.15;;;;;;;-1.33;100.00;97932.28;5062153;28;20095;-78
2023/11/29 03:17:36;;;;;;;17.60;7.93;;;;;;;-1.22;100.00;97950.63;5045623;28;20067;-78
2023/11/29 03:20:03;;;;;;;16.52;7.68;;;;;;;-1.33;100.00;97921.66;5045675;28;20025;-78
2023/11/29 03:22:28;;;;;;;15.35;7.07;;;;;;;-1.34;100.00;97925.28;5067998;28;20025;-78
2023/11/29 03:24:54;;;;;;;15.20;6.97;;;;;;;-1.23;100.00;97919.78;5050170;28;20218;-78
2023/11/29 03:27:19;;;;;;;13.35;7.30;;;;;;;-1.12;100.00;97945.25;5049741;28;20021;-78
2023/11/29 03:29:44;;;;;;;15.70;8.10;;;;;;;-0.98;100.00;97960.66;5068011;28;20035;-78
2023/11/29 03:32:10;;;;;;;17.40;8.48;;;;;;;-1.05;100.00;97940.16;5049993;28;20102;-78
2023/11/29 03:34:35;;;;;;;17.52;7.60;;;;;;;-0.96;100.00;97960.50;5053472;28;20024;-78
2023/11/29 03:37:01;;;;;;;14.73;6.93;;;;;;;-1.03;100.00;97944.34;5083017;28;20218;-78
2023/11/29 03:39:26;;;;;;;14.90;6.95;;;;;;;-0.96;100.00;97945.41;5058355;28;20119;-79
2023/11/29 03:41:51;;;;;;;15.88;7.72;;;;;;;-1.09;100.00;97909.63;5047941;28;20102;-78
2023/11/29 03:44:17;;;;;;;15.80;7.85;;;;;;;-1.11;100.00;97902.63;5077765;28;20032;-79
2023/11/29 03:46:42;;;;;;;15.88;7.80;;;;;;;-0.84;100.00;97927.41;5050721;28;20029;-79
2023/11/29 03:49:07;;;;;;;18.33;7.38;;;;;;;-0.81;100.00;97939.56;5049652;28;20032;-79
2023/11/29 03:51:32;;;;;;;14.88;7.45;;;;;;;-0.97;100.00;97903.06;5063758;28;20439;-79
2023/11/29 03:53:58;;;;;;;15.23;7.35;;;;;;;-0.97;100.00;97880.03;5087491;28;20031;-77
2023/11/29 03:56:23;;;;;;;13.20;7.22;;;;;;;-0.81;100.00;97918.31;5060919;28;20020;-77
2023/11/29 03:58:48;;;;;;;13.77;6.68;;;;;;;-0.72;100.00;97912.91;5049049;28;20257;-77
2023/11/29 04:01:14;;;;;;;17.55;7.18;;;;;;;-0.85;100.00;97906.34;5049029;28;20325;-76
2023/11/29 04:03:40;;;;;;;14.85;6.65;;;;;;;-0.99;100.00;97882.00;5049813;28;20045;-78
2023/11/29 04:06:06;;;;;;;13.02;6.60;;;;;;;-1.00;100.00;97882.97;5049866;28;20052;-78
2023/11/29 04:08:34;;;;;;;15.25;7.20;;;;;;;-0.99;100.00;97887.31;5066549;28;20036;-78
2023/11/29 04:10:59;;;;;;;12.27;6.38;;;;;;;-0.90;100.00;97904.97;5048826;28;20107;-78
2023/11/29 04:13:24;;;;;;;14.27;6.55;;;;;;;-1.02;100.00;97884.09;5064253;28;20032;-78
2023/11/29 04:15:50;;;;;;;14.50;7.03;;;;;;;-1.11;100.00;97873.44;5076020;28;20032;-78
2023/11/29 04:18:15;;;;;;;12.88;6.38;;;;;;;-0.99;100.00;97897.09;5087739;22;20036;-75
2023/11/29 04:20:40;;;;;;;13.13;6.30;;;;;;;-1.01;100.00;97883.13;5082525;28;20075;-75
2023/11/29 04:23:06;;;;;;;11.05;5.88;;;;;;;-1.05;100.00;97898.53;5093031;28;20024;-76
2023/11/29 04:25:31;;;;;;;14.65;6.63;;;;;;;-1.12;100.00;97890.34;5066431;28;20020;-76
2023/11/29 04:27:56;;;;;;;16.23;6.95;;;;;;;-1.14;100.00;97891.50;5062046;28;20025;-76
2023/11/29 04:30:21;;;;;;;13.13;5.80;;;;;;;-1.21;100.00;97890.41;5082634;28;20020;-76
2023/11/29 04:32:47;;;;;;;14.85;5.97;;;;;;;-1.25;100.00;97887.25;5057677;28;20020;-75
2023/11/29 04:35:12;;;;;;;11.55;6.07;;;;;;;-1.33;100.00;97889.81;5076718;28;20103;-76
2023/11/29 04:37:37;;;;;;;16.02;6.97;;;;;;;-1.24;100.00;97891.56;5066532;28;20027;-75
2023/11/29 04:40:04;;;;;;;14.18;6.55;;;;;;;-1.23;100.00;97893.25;5047341;28;20325;-75
2023/11/29 04:42:29;;;;;;;11.20;5.75;;;;;;;-1.20;100.00;97890.28;5047771;28;20041;-75
2023/11/29 04:44:54;;;;;;;11.38;5.32;;;;;;;-1.09;100.00;97886.56;5066587;28;20209;-76
2023/11/29 04:47:20;;;;;;;14.00;6.00;;;;;;;-0.99;100.00;97889.13;5068491;28;20020;-75
2023/11/29 04:49:45;;;;;;;12.48;6.15;;;;;;;-0.93;100.00;97875.25;5064874;28;20020;-76
2023/11/29 04:52:11;;;;;;;11.18;5.50;;;;;;;-0.91;100.00;97879.41;5083405;28;20020;-76
2023/11/29 04:54:36;;;;;;;11.77;5.38;;;;;;;-0.90;100.00;97864.31;5084159;28;20027;-76
2023/11/29 04:57:01;;;;;;;11.13;6.07;;;;;;;-0.90;100.00;97869.63;5062076;28;20016;-80
2023/11/29 04:59:27;;;;;;;13.52;6.07;;;;;;;-0.89;100.00;97863.34;5065404;28;20028;-79
2023/11/29 05:01:52;;;;;;;10.77;5.53;;;;;;;-0.80;100.00;97870.38;5063306;28;20055;-77
2023/11/29 05:04:18;;;;;;;12.48;5.55;;;;;;;-0.75;100.00;97881.34;5060921;28;20032;-77
2023/11/29 05:06:44;;;;;;;11.18;5.22;;;;;;;-0.77;100.00;97875.38;5080584;28;20028;-77
2023/11/29 05:09:14;;;;;;;10.52;5.70;;;;;;;-0.85;100.00;97850.56;5061485;28;20013;-77
2023/11/29 05:11:39;;;;;;;12.85;6.18;;;;;;;-0.74;100.00;97869.75;5090275;28;20055;-78
2023/11/29 05:14:28;;;;;;;10.43;5.38;;;;;;;-0.77;100.00;97863.91;5068371;28;20271;-80
2023/11/29 05:16:53;;;;;;;10.32;4.75;;;;;;;-0.67;100.00;97868.13;5063767;28;20036;-78
2023/11/29 05:19:18;;;;;;;9.27;4.75;;;;;;;-0.62;100.00;97873.00;5065830;28;20024;-79
2023/11/29 05:21:44;;;;;;;10.95;5.30;;;;;;;-0.56;100.00;97874.19;5066823;28;20067;-79
2023/11/29 05:24:09;;;;;;;9.27;4.50;;;;;;;-0.58;100.00;97869.00;5085006;28;20463;-79
2023/11/29 05:26:34;;;;;;;13.05;5.53;;;;;;;-0.70;100.00;97860.47;5084719;28;20028;-79
2023/11/29 05:29:00;;;;;;;10.85;5.18;;;;;;;-0.73;100.00;97860.81;5071144;28;20032;-76
2023/11/29 05:31:25;;;;;;;10.40;5.10;;;;;;;-0.70;100.00;97864.97;5082442;28;20282;-77
2023/11/29 05:33:52;;;;;;;12.50;5.15;;;;;;;-0.63;100.00;97870.47;5077294;28;20028;-77
2023/11/29 05:36:19;;;;;;;12.77;5.25;;;;;;;-0.60;100.00;97875.47;5083428;28;20024;-75
2023/11/29 05:38:44;;;;;;;10.75;5.22;;;;;;;-0.65;100.00;97864.50;5056138;28;20225;-74
2023/11/29 05:41:13;;;;;;;14.88;6.30;;;;;;;-0.70;100.00;97865.78;5092278;28;20024;-74
2023/11/29 05:43:38;;;;;;;16.08;6.25;;;;;;;-0.65;100.00;97861.84;5074912;28;20130;-75
2023/11/29 05:46:03;;;;;;;14.77;5.75;;;;;;;-0.67;100.00;97859.34;5094058;28;20032;-76
2023/11/29 05:48:29;;;;;;;10.15;5.15;;;;;;;-0.67;100.00;97862.00;5098512;28;20072;-77
2023/11/29 05:50:54;;;;;;;11.38;5.10;;;;;;;-0.65;100.00;97859.19;5098302;28;20021;-79
2023/11/29 05:53:23;;;;;;;10.38;4.80;;;;;;;-0.60;100.00;97847.13;5071035;28;20020;-76
2023/11/29 05:55:48;;;;;;;12.15;5.47;;;;;;;-0.53;100.00;97860.59;5077288;28;20068;-77
2023/11/29 05:58:14;;;;;;;12.18;5.18;;;;;;;-0.42;100.00;97854.16;5086403;28;20036;-78
2023/11/29 06:00:39;;;;;;;14.65;5.95;;;;;;;-0.43;100.00;97847.19;5075907;28;20032;-78
2023/11/29 06:03:05;;;;;;;18.17;7.25;;;;;;;-0.47;100.00;97867.94;5069325;28;20028;-76
2023/11/29 06:05:30;;;;;;;15.38;5.65;;;;;;;-0.51;100.00;97854.13;5079589;28;20037;-75
2023/11/29 06:07:56;;;;;;;14.73;6.55;;;;;;;-0.53;100.00;97855.28;5091061;28;20033;-75
2023/11/29 06:10:22;;;;;;;10.75;5.45;;;;;;;-0.51;100.00;97863.94;5080452;28;20032;-78
2023/11/29 06:12:47;;;;;;;11.30;5.20;;;;;;;-0.60;100.00;97833.81;5080826;28;20020;-77
2023/11/29 06:15:13;;;;;;;10.85;5.68;;;;;;;-0.54;100.00;97848.31;5083803;28;20256;-79
2023/11/29 06:17:39;;;;;;;11.05;5.43;;;;;;;-0.51;100.00;97840.00;5069868;28;20221;-72
2023/11/29 06:20:08;;;;;;;11.77;5.28;;;;;;;-0.55;100.00;97847.47;5072456;28;20024;-74
2023/11/29 06:22:34;;;;;;;12.63;6.10;;;;;;;-0.47;100.00;97857.31;5079162;28;20024;-73
2023/11/29 06:25:00;;;;;;;9.90;5.13;;;;;;;-0.54;100.00;97857.09;5073137;28;20202;-74
2023/11/29 06:27:28;;;;;;;10.48;5.00;;;;;;;-0.54;100.00;97854.44;5066262;28;20020;-78
2023/11/29 06:29:53;;;;;;;8.60;3.90;;;;;;;-0.47;100.00;97865.28;5067738;28;20268;-78
2023/11/29 06:32:18;;;;;;;9.45;5.03;;;;;;;-0.46;100.00;97864.28;5087757;28;20024;-79
2023/11/29 06:34:44;;;;;;;11.82;5.38;;;;;;;-0.43;100.00;97861.31;5069893;28;20020;-79
2023/11/29 06:37:09;;;;;;;10.80;5.30;;;;;;;-0.40;100.00;97853.03;5066019;28;20055;-79
2023/11/29 06:39:34;;;;;;;11.80;5.72;;;;;;;-0.38;100.00;97859.03;5077345;28;20083;-78
2023/11/29 06:42:00;;;;;;;10.88;5.00;;;;;;;-0.39;100.00;97857.38;5074563;28;20035;-79
2023/11/29 06:44:26;;;;;;;10.57;4.88;;;;;;;-0.39;100.00;97852.06;5059484;28;20043;-78
2023/11/29 06:46:52;;;;;;;9.88;5.20;;;;;;;-0.41;100.00;97853.19;5077317;28;20330;-78
2023/11/29 06:49:19;;;;;;;9.50;4.32;;;;;;;-0.36;100.00;97858.88;5086069;28;20016;-80
2023/11/29 06:51:45;;;;;;;11.50;5.20;;;;;;;-0.34;100.00;97848.91;5062944;28;20063;-79
2023/11/29 06:54:10;;;;;;;11.27;5.35;;;;;;;-0.29;100.00;97858.09;5081529;28;20095;-78
2023/11/29 06:56:35;;;;;;;10.73;5.32;;;;;;;-0.36;100.00;97857.03;5086242;28;20027;-78
2023/11/29 06:59:04;;;;;;;10.65;4.90;;;;;;;-0.24;100.00;97869.09;5069259;28;20053;-74
2023/11/29 07:01:29;;;;;;;10.80;4.78;;;;;;;-0.32;100.00;97847.75;5079827;28;20241;-74
2023/11/29 07:03:55;;;;;;;11.35;5.47;;;;;;;-0.16;100.00;97864.78;5082116;28;20036;-74
2023/11/29 07:06:22;;;;;;;9.82;4.80;;;;;;;-0.18;100.00;97859.63;5081421;28;20032;-75
2023/11/29 07:08:47;;;;;;;10.30;4.97;;;;;;;-0.15;100.00;97851.34;5073557;28;20059;-73
2023/11/29 07:11:13;;;;;;;10.05;5.13;;;;;;;-0.15;100.00;97853.16;5074977;28;20237;-73
2023/11/29 07:13:38;;;;;;;10.95;5.20;;;;;;;-0.33;100.00;97837.28;5076034;28;20317;-72
2023/11/29 07:16:04;;;;;;;9.20;4.50;;;;;;;-0.26;100.00;97851.63;5078303;28;20032;-74
2023/11/29 07:18:29;;;;;;;9.75;5.05;;;;;;;-0.18;100.00;97837.50;5069567;28;20318;-74
2023/11/29 07:20:54;;;;;;;12.43;5.13;;;;;;;-0.15;100.00;97830.06;5074849;28;20028;-72
2023/11/29 07:23:24;;;;;;;9.63;4.22;;;;;;;-0.15;100.00;97810.63;5082110;28;20096;-81
2023/11/29 07:25:50;;;;;;;8.60;4.90;;;;;;;0.08;100.00;97825.03;5081378;28;20029;-78
2023/11/29 07:28:16;;;;;;;9.80;4.93;;;;;;;-0.01;100.00;97813.50;5079505;28;20047;-81
2023/11/29 07:30:42;;;;;;;9.05;4.72;;;;;;;0.07;100.00;97836.63;5090936;28;20341;-78
2023/11/29 07:33:07;;;;;;;9.68;4.15;;;;;;;0.10;100.00;97838.13;5058264;28;20030;-80
2023/11/29 07:35:33;;;;;;;10.68;5.93;;;;;;;0.10;100.00;97852.25;5061004;28;20233;-77
2023/11/29 07:38:00;;;;;;;11.90;5.82;;;;;;;0.11;100.00;97851.28;5060583;28;20318;-79
2023/11/29 07:40:27;;;;;;;13.55;5.20;;;;;;;0.12;100.00;97836.97;5076915;28;20080;-81
2023/11/29 07:42:53;;;;;;;11.85;5.43;;;;;;;0.20;100.00;97847.66;5053583;28;20349;-80
2023/11/29 07:45:18;;;;;;;8.68;4.43;;;;;;;0.08;100.00;97848.09;5067035;28;20104;-79
2023/11/29 07:47:44;;;;;;;10.75;4.93;;;;;;;0.13;100.00;97846.66;5083558;28;20372;-80
2023/11/29 07:50:12;;;;;;;10.02;4.57;;;;;;;0.07;100.00;97841.13;5082003;28;20269;-78
2023/11/29 07:52:39;;;;;;;11.05;5.13;;;;;;;0.20;100.00;97839.66;5067736;28;20048;-81
2023/11/29 07:55:07;;;;;;;9.82;4.93;;;;;;;0.43;100.00;97834.56;5077622;28;20020;-76
2023/11/29 07:57:32;;;;;;;7.57;4.25;;;;;;;0.51;100.00;97843.56;5064111;28;20016;-77
2023/11/29 07:59:58;;;;;;;11.10;4.60;;;;;;;0.64;100.00;97849.25;5079579;28;20078;-77
2023/11/29 08:02:23;;;;;;;9.90;4.63;;;;;;;0.49;100.00;97834.91;5081310;28;20054;-78
2023/11/29 08:04:49;;;;;;;14.50;4.65;;;;;;;0.47;100.00;97845.72;5056502;28;20056;-78
2023/11/29 08:07:15;;;;;;;8.50;4.20;;;;;;;0.46;100.00;97836.06;5078182;28;20017;-79
2023/11/29 08:09:40;;;;;;;8.70;4.30;;;;;;;0.48;100.00;97849.22;5058464;28;20032;-76
2023/11/29 08:12:05;;;;;;;10.90;5.07;;;;;;;0.60;100.00;97840.78;5049944;28;20024;-78
2023/11/29 08:14:32;;;;;;;10.77;5.28;;;;;;;0.68;100.00;97852.41;5085243;28;20059;-75
2023/11/29 08:16:58;;;;;;;10.38;4.72;;;;;;;0.67;100.00;97846.25;5077259;28;20084;-74
2023/11/29 08:19:23;;;;;;;10.63;5.10;;;;;;;0.78;100.00;97855.75;5071262;28;20055;-78
2023/11/29 08:21:49;;;;;;;9.50;5.00;;;;;;;0.94;100.00;97852.28;5054425;28;20420;-78
2023/11/29 08:24:14;;;;;;;11.55;5.93;;;;;;;1.03;100.00;97846.78;5093353;28;20021;-75
2023/11/29 08:26:39;;;;;;;10.50;5.45;;;;;;;1.13;100.00;97835.13;5072378;28;20202;-78
2023/11/29 08:29:05;;;;;;;7.53;3.80;;;;;;;1.08;100.00;97841.81;5068416;28;20348;-77
2023/11/29 08:31:30;;;;;;;10.70;5.05;;;;;;;0.96;100.00;97848.44;5091355;28;20032;-74
2023/11/29 08:33:55;;;;;;;9.43;4.90;;;;;;;0.94;100.00;97861.09;5084436;28;20051;-80
2023/11/29 08:36:21;;;;;;;10.50;4.80;;;;;;;0.97;100.00;97851.94;5061130;28;20020;-78
2023/11/29 08:38:47;;;;;;;9.30;4.97;;;;;;;0.94;100.00;97852.28;5056960;28;20424;-78
2023/11/29 08:41:13;;;;;;;10.18;4.70;;;;;;;1.00;100.00;97833.81;5067301;28;20367;-76
2023/11/29 08:43:38;;;;;;;9.52;4.40;;;;;;;1.03;100.00;97837.97;5085022;28;20036;-77
2023/11/29 08:46:03;;;;;;;10.88;5.32;;;;;;;1.16;100.00;97821.50;5082806;28;20020;-77
2023/11/29 08:48:29;;;;;;;10.10;5.13;;;;;;;1.06;100.00;97830.47;5077749;28;20029;-81
2023/11/29 08:50:55;;;;;;;9.27;4.68;;;;;;;1.04;100.00;97823.66;5048535;28;20091;-80
2023/11/29 08:53:22;;;;;;;10.02;5.45;;;;;;;0.89;100.00;97810.16;5065345;28;20217;-80
2023/11/29 08:55:47;;;;;;;10.75;4.88;;;;;;;1.01;100.00;97816.81;5064831;28;20025;-80
2023/11/29 08:58:13;;;;;;;9.90;4.72;;;;;;;1.06;100.00;97827.81;5066951;23;20071;-56
2023/11/29 09:00:41;;;;;;;13.35;5.38;;;;;;;0.97;100.00;97833.28;5045099;28;20383;-56
2023/11/29 09:03:11;;;;;;;9.63;4.60;;;;;;;1.15;100.00;97825.13;5052704;28;20021;-56
2023/11/29 09:05:36;;;;;;;14.68;5.30;;;;;;;1.31;100.00;97825.97;5047833;28;20033;-56
2023/11/29 09:08:03;;;;;;;8.30;4.80;;;;;;;1.44;100.00;97830.78;5051585;28;20032;-56
2023/11/29 09:10:28;;;;;;;12.27;5.53;;;;;;;1.63;100.00;97831.41;5048512;28;20517;-56
2023/11/29 09:12:54;;;;;;;14.50;4.00;;;;;;;1.74;100.00;97839.03;5051095;28;20025;-56
2023/11/29 09:15:19;;;;;;;7.90;4.15;;;;;;;1.68;100.00;97834.41;5054295;28;20028;-56
2023/11/29 09:17:46;;;;;;;8.00;3.97;;;;;;;1.81;100.00;97823.16;5051254;28;20067;-62
2023/11/29 09:20:12;;;;;;;9.18;4.18;;;;;;;1.75;100.00;97832.69;5052229;28;20037;-62
2023/11/29 09:22:37;;;;;;;10.43;5.03;;;;;;;1.72;100.00;97825.84;5053501;28;20091;-62
2023/11/29 09:25:04;;;;;;;7.30;3.75;;;;;;;1.54;100.00;97826.06;5065171;28;20037;-63
2023/11/29 09:27:29;;;;;;;8.13;4.43;;;;;;;1.44;100.00;97828.13;5054510;28;20028;-62
2023/11/29 09:29:55;;;;;;;7.53;4.10;;;;;;;1.50;100.00;97826.59;5051792;28;20036;-62
2023/11/29 09:32:20;;;;;;;8.15;4.18;;;;;;;1.58;100.00;97823.09;5059013;28;20029;-62
2023/11/29 09:34:46;;;;;;;7.47;4.20;;;;;;;1.62;100.00;97822.56;5055814;28;20021;-62
2023/11/29 09:37:11;;;;;;;7.95;4.68;;;;;;;1.76;100.00;97829.03;5056524;28;20130;-62
2023/11/29 09:39:37;;;;;;;7.65;3.70;;;;;;;1.67;100.00;97830.88;5051511;28;20031;-62
2023/11/29 09:42:03;;;;;;;7.68;3.85;;;;;;;1.84;100.00;97831.66;5050018;28;20032;-62
2023/11/29 09:44:32;;;;;;;8.15;3.90;;;;;;;1.83;100.00;97829.16;5052245;28;20551;-65
2023/11/29 09:46:58;;;;;;;7.22;3.40;;;;;;;1.91;100.00;97821.13;5055139;28;20090;-62
2023/11/29 09:49:26;;;;;;;5.68;3.35;;;;;;;2.04;100.00;97815.25;5067796;28;20467;-62
2023/11/29 09:51:51;;;;;;;5.28;3.00;;;;;;;1.83;100.00;97819.31;5052638;28;20028;-62
2023/11/29 09:54:17;;;;;;;5.68;3.33;;;;;;;1.45;100.00;97831.59;5050775;28;20037;-62
2023/11/29 09:56:42;;;;;;;6.57;2.85;;;;;;;1.65;100.00;97835.56;5048223;28;20029;-62
2023/11/29 09:59:08;;;;;;;5.80;3.08;;;;;;;1.58;100.00;97837.25;5050848;28;20028;-62
2023/11/29 10:01:37;;;;;;;6.50;3.28;;;;;;;1.51;100.00;97836.25;5049793;28;20063;-62
2023/11/29 10:04:05;;;;;;;;;;;;;;;1.58;100.00;97836.41;5052768;28;20027;-57
2023/11/29 10:06:32;;;;;;;5.85;2.88;;;;;;;1.51;100.00;97845.06;5056234;28;19913;-56
2023/11/29 10:08:58;;;;;;;6.50;3.22;;;;;;;1.44;100.00;97846.78;5046605;28;20027;-56
2023/11/29 10:11:25;;;;;;;8.18;3.70;;;;;;;1.25;100.00;97839.13;5043644;28;20460;-57
2023/11/29 10:13:51;;;;;;;9.65;3.63;;;;;;;1.25;100.00;97842.59;5050838;28;20480;-56
2023/11/29 10:16:19;;;;;;;6.30;3.08;;;;;;;1.03;100.00;97836.13;5050827;28;20051;-57
2023/11/29 10:18:46;;;;;;;7.05;3.75;;;;;;;1.03;100.00;97830.81;5063257;28;20063;-57
2023/11/29 10:21:13;;;;;;;6.03;3.63;;;;;;;1.27;100.00;97829.13;5050827;28;20037;-57
2023/11/29 10:23:44;;;;;;;7.85;3.85;;;;;;;1.64;100.00;97825.06;5049258;28;20024;-56
2023/11/29 10:26:10;;;;;;;5.55;3.45;;;;;;;1.96;100.00;97813.44;5051995;28;20115;-56
2023/11/29 10:28:36;;;;;;;6.10;3.95;;;;;;;2.04;100.00;97810.72;5053154;28;20017;-56
2023/11/29 10:31:03;;;;;;;5.53;3.45;;;;;;;2.04;100.00;97799.25;5044125;28;20070;-56
2023/11/29 10:33:32;;;;;;;6.72;3.83;;;;;;;2.07;100.00;97801.56;5060244;28;20408;-56
2023/11/29 10:36:02;;;;;;;6.50;3.47;;;;;;;2.26;100.00;97793.13;5043041;28;20024;-56
2023/11/29 10:38:29;;;;;;;6.15;2.92;;;;;;;2.35;100.00;97792.06;5046229;28;20469;-62
2023/11/29 10:40:57;;;;;;;5.07;2.92;;;;;;;2.54;100.00;97800.63;5046645;28;20036;-62
2023/11/29 10:43:30;;;;;;;4.68;2.58;;;;;;;2.56;100.00;97786.09;5050098;28;20021;-66
2023/11/29 10:46:16;;;;;;;5.05;2.70;;;;;;;2.59;100.00;97776.91;5028720;28;20060;-56
2023/11/29 10:48:50;;;;;;;5.53;3.22;;;;;;;2.73;100.00;97776.13;5041078;28;20032;-56
2023/11/29 10:51:18;;;;;;;4.57;2.45;;;;;;;2.89;100.00;97771.69;5051129;28;20036;-55
2023/11/29 10:53:45;;;;;;;4.75;2.63;;;;;;;3.20;100.00;97784.94;5029820;28;20025;-55
2023/11/29 10:56:11;;;;;;;5.28;2.65;;;;;;;3.37;100.00;97762.34;5028467;28;20033;-56
2023/11/29 10:59:04;;;;;;;3.72;2.40;;;;;;;3.39;100.00;97764.84;5059761;28;20024;-55
2023/11/29 11:01:34;;;;;;;6.13;2.70;;;;;;;3.86;100.00;97756.44;5044747;28;20028;-62
2023/11/29 11:04:00;;;;;;;3.72;2.42;;;;;;;6.44;100.00;97747.91;5051837;28;20067;-62
2023/11/29 11:06:29;;;;;;;3.70;2.30;;;;;;;8.20;100.00;97747.34;5048795;28;20400;-55
2023/11/29 11:08:57;;;;;;;4.53;2.28;;;;;;;8.34;100.00;97748.94;5030810;28;20029;-55
2023/11/29 11:11:47;;;;;;;2.97;1.95;;;;;;;6.44;100.00;97757.84;5030286;28;20121;-56
2023/11/29 11:14:20;;;;;;;4.80;2.10;;;;;;;5.20;100.00;97755.94;5047615;28;20025;-55
2023/11/29 11:17:06;;;;;;;3.35;2.05;;;;;;;4.11;100.00;97762.31;5033746;28;20120;-55